PVG3CM ENBR-BGGH
Flight info
| Callsign | PVG3CM |
|---|---|
| Flight time | N/A |
| Altitude | 40000 |
| Route | REKLI DCT IPTON/M083F400 DCT 64N010W 65N020W 65N030W 65N040W DCT BAMAM |
| Aircraft | B772/H-SDE2E3FGHIJ5LORVWXY/LB1D1 |
Departure
| Time | 2026-04-30 14:21 |
|---|---|
| Airport | Bergen Airport, Flesland (ENBR) |
Arrival
| Time | N/A |
|---|---|
| Airport | Nuuk International Airport (BGGH) |
| Time | Latitude | Longitude | Altitude | Speed | Heading |
|---|---|---|---|---|---|
| 2026-04-30 13:52 | 60.28820 | 5.22612 | 175 ft | 0 kts | 32° |
| 2026-04-30 14:08 | 60.28817 | 5.22607 | 175 ft | 3 kts | 32° |
| 2026-04-30 14:09 | 60.28793 | 5.22578 | 175 ft | 4 kts | 28° |
| 2026-04-30 14:09 | 60.28768 | 5.22550 | 174 ft | 4 kts | 34° |
| 2026-04-30 14:09 | 60.28722 | 5.22482 | 173 ft | 3 kts | 33° |
| 2026-04-30 14:10 | 60.28706 | 5.22473 | 173 ft | 3 kts | 351° |
| 2026-04-30 14:10 | 60.28684 | 5.22482 | 173 ft | 0 kts | 347° |
| 2026-04-30 14:13 | 60.28686 | 5.22481 | 173 ft | 1 kts | 347° |
| 2026-04-30 14:13 | 60.28729 | 5.22465 | 173 ft | 10 kts | 351° |
| 2026-04-30 14:13 | 60.28806 | 5.22438 | 173 ft | 12 kts | 350° |
| 2026-04-30 14:13 | 60.28892 | 5.22410 | 173 ft | 10 kts | 351° |
| 2026-04-30 14:14 | 60.28931 | 5.22326 | 173 ft | 9 kts | 279° |
| 2026-04-30 14:14 | 60.28994 | 5.22256 | 172 ft | 15 kts | 347° |
| 2026-04-30 14:14 | 60.29142 | 5.22203 | 170 ft | 26 kts | 350° |
| 2026-04-30 14:14 | 60.29334 | 5.22138 | 167 ft | 28 kts | 350° |
| 2026-04-30 14:15 | 60.29534 | 5.22070 | 164 ft | 29 kts | 350° |
| 2026-04-30 14:15 | 60.29743 | 5.22001 | 162 ft | 30 kts | 351° |
| 2026-04-30 14:15 | 60.29952 | 5.21930 | 162 ft | 30 kts | 350° |
| 2026-04-30 14:15 | 60.30158 | 5.21862 | 166 ft | 28 kts | 350° |
| 2026-04-30 14:16 | 60.30341 | 5.21798 | 172 ft | 25 kts | 350° |
| 2026-04-30 14:16 | 60.30507 | 5.21743 | 177 ft | 23 kts | 350° |
| 2026-04-30 14:16 | 60.30610 | 5.21707 | 182 ft | 10 kts | 350° |
| 2026-04-30 14:16 | 60.30657 | 5.21641 | 183 ft | 6 kts | 291° |
| 2026-04-30 14:17 | 60.30660 | 5.21607 | 184 ft | 0 kts | 265° |
| 2026-04-30 14:19 | 60.30659 | 5.21594 | 184 ft | 2 kts | 265° |
| 2026-04-30 14:20 | 60.30658 | 5.21555 | 185 ft | 4 kts | 265° |
| 2026-04-30 14:20 | 60.30650 | 5.21449 | 186 ft | 8 kts | 260° |
| 2026-04-30 14:20 | 60.30505 | 5.21423 | 181 ft | 34 kts | 171° |
| 2026-04-30 14:21 | 60.29984 | 5.21596 | 166 ft | 116 kts | 170° |
| 2026-04-30 14:21 | 60.28973 | 5.21936 | 273 ft | 168 kts | 171° |
| 2026-04-30 14:21 | 60.26639 | 5.22613 | 1827 ft | 178 kts | 171° |
| 2026-04-30 14:22 | 60.25345 | 5.23014 | 2297 ft | 197 kts | 171° |
| 2026-04-30 14:22 | 60.22770 | 5.21138 | 3419 ft | 222 kts | 235° |
| 2026-04-30 14:22 | 60.22343 | 5.18206 | 4234 ft | 225 kts | 270° |
| 2026-04-30 14:23 | 60.23147 | 5.13172 | 5392 ft | 241 kts | 288° |
| 2026-04-30 14:23 | 60.23309 | 5.12322 | 5560 ft | 245 kts | 288° |